Time,TemperatureF,DewpointF,PressureIn,WindDirection,WindDirectionDegrees,WindSpeedMPH,WindSpeedGustMPH,Humidity,HourlyPrecipIn,Conditions,Clouds,dailyrainin,SoftwareType,DateUTC
2013-03-03 00:00:00,31.0,18.3,29.88,West,270,1.1,1.1,59,0.00,,,0.00,WUHU216HW,2013-03-03 05:00:00,
2013-03-03 00:05:00,31.0,18.3,29.88,West,270,1.1,1.1,59,0.00,,,0.00,WUHU216HW,2013-03-03 05:05:00,
2013-03-03 00:30:00,31.0,18.7,29.88,West,270,1.6,1.6,60,0.00,,,0.00,WUHU216HW,2013-03-03 05:30:00,
2013-03-03 00:35:00,31.0,18.7,29.88,West,270,1.6,1.6,60,0.00,,,0.00,WUHU216HW,2013-03-03 05:35:00,
2013-03-03 01:00:00,30.8,18.5,29.88,NW,315,1.8,1.8,60,0.00,,,0.00,WUHU216HW,2013-03-03 06:00:00,
2013-03-03 01:05:00,30.8,18.5,29.88,NW,315,1.8,1.8,60,0.00,,,0.00,WUHU216HW,2013-03-03 06:05:00,
2013-03-03 01:30:00,30.4,18.9,29.88,West,270,1.8,1.8,62,0.00,,,0.00,WUHU216HW,2013-03-03 06:30:00,
2013-03-03 01:35:00,30.4,18.9,29.88,West,270,1.8,1.8,62,0.00,,,0.00,WUHU216HW,2013-03-03 06:35:00,
2013-03-03 02:00:00,29.9,18.7,29.88,NW,315,1.8,1.8,63,0.00,,,0.00,WUHU216HW,2013-03-03 07:00:00,
2013-03-03 02:05:00,29.9,18.7,29.88,NW,315,1.8,1.8,63,0.00,,,0.00,WUHU216HW,2013-03-03 07:05:00,
2013-03-03 02:30:00,29.2,18.1,29.87,NNE,23,0.0,0.0,63,0.00,,,0.00,WUHU216HW,2013-03-03 07:30:00,
2013-03-03 02:35:00,29.2,18.1,29.87,NNE,23,0.0,0.0,63,0.00,,,0.00,WUHU216HW,2013-03-03 07:35:00,
2013-03-03 03:00:00,28.3,18.4,29.87,West,270,0.2,0.2,66,0.00,,,0.00,WUHU216HW,2013-03-03 08:00:00,
2013-03-03 03:05:00,28.3,18.4,29.87,West,270,0.2,0.2,66,0.00,,,0.00,WUHU216HW,2013-03-03 08:05:00,
2013-03-03 03:30:00,27.2,17.6,29.86,SW,225,0.0,0.0,67,0.00,,,0.00,WUHU216HW,2013-03-03 08:30:00,
2013-03-03 03:35:00,27.2,17.6,29.86,SW,225,0.0,0.0,67,0.00,,,0.00,WUHU216HW,2013-03-03 08:35:00,
2013-03-03 04:00:00,25.4,16.9,29.86,West,270,0.4,0.4,70,0.00,,,0.00,WUHU216HW,2013-03-03 09:00:00,
2013-03-03 04:05:00,25.4,16.9,29.86,West,270,0.4,0.4,70,0.00,,,0.00,WUHU216HW,2013-03-03 09:05:00,
2013-03-03 04:30:00,25.6,17.1,29.87,West,270,0.0,0.0,70,0.00,,,0.00,WUHU216HW,2013-03-03 09:30:00,
2013-03-03 04:35:00,25.6,17.1,29.87,West,270,0.0,0.0,70,0.00,,,0.00,WUHU216HW,2013-03-03 09:35:00,
2013-03-03 04:40:00,25.6,17.1,29.87,West,270,0.0,0.0,70,0.00,,,0.00,WUHU216HW,2013-03-03 09:40:00,
2013-03-03 05:00:00,25.4,16.9,29.87,WSW,248,0.2,0.2,70,0.00,,,0.00,WUHU216HW,2013-03-03 10:00:00,
2013-03-03 05:05:00,25.4,16.9,29.87,WSW,248,0.2,0.2,70,0.00,,,0.00,WUHU216HW,2013-03-03 10:05:00,
2013-03-03 05:30:00,24.1,16.4,29.87,WSW,248,0.4,0.4,72,0.00,,,0.00,WUHU216HW,2013-03-03 10:30:00,
2013-03-03 05:35:00,24.1,16.4,29.87,WSW,248,0.4,0.4,72,0.00,,,0.00,WUHU216HW,2013-03-03 10:35:00,
2013-03-03 06:00:00,23.6,16.5,29.87,WSW,248,0.0,0.0,74,0.00,,,0.00,WUHU216HW,2013-03-03 11:00:00,
2013-03-03 06:05:00,23.6,16.5,29.87,WSW,248,0.0,0.0,74,0.00,,,0.00,WUHU216HW,2013-03-03 11:05:00,
2013-03-03 06:30:00,23.0,16.3,29.88,NW,315,0.0,0.0,75,0.00,,,0.00,WUHU216HW,2013-03-03 11:30:00,
2013-03-03 06:35:00,23.0,16.3,29.88,NW,315,0.0,0.0,75,0.00,,,0.00,WUHU216HW,2013-03-03 11:35:00,
2013-03-03 07:00:00,22.9,16.4,29.88,WNW,293,1.1,1.1,76,0.00,,,0.00,WUHU216HW,2013-03-03 12:00:00,
2013-03-03 07:05:00,22.9,16.4,29.88,WNW,293,1.1,1.1,76,0.00,,,0.00,WUHU216HW,2013-03-03 12:05:00,
2013-03-03 07:30:00,23.6,17.5,29.89,SSW,203,0.2,0.2,77,0.00,,,0.00,WUHU216HW,2013-03-03 12:30:00,
2013-03-03 07:35:00,23.6,17.5,29.89,SSW,203,0.2,0.2,77,0.00,,,0.00,WUHU216HW,2013-03-03 12:35:00,
2013-03-03 08:00:00,24.8,18.4,29.90,SSW,203,2.2,2.2,76,0.00,,,0.00,WUHU216HW,2013-03-03 13:00:00,
2013-03-03 08:05:00,24.8,18.4,29.90,SSW,203,2.2,2.2,76,0.00,,,0.00,WUHU216HW,2013-03-03 13:05:00,
2013-03-03 08:30:00,28.1,20.3,29.90,SSW,203,0.9,0.9,72,0.00,,,0.00,WUHU216HW,2013-03-03 13:30:00,
2013-03-03 08:35:00,28.1,20.3,29.90,SSW,203,0.9,0.9,72,0.00,,,0.00,WUHU216HW,2013-03-03 13:35:00,
2013-03-03 09:00:00,30.6,20.5,29.89,WNW,293,1.3,1.3,66,0.00,,,0.00,WUHU216HW,2013-03-03 14:00:00,
2013-03-03 09:05:00,30.6,20.5,29.89,WNW,293,1.3,1.3,66,0.00,,,0.00,WUHU216HW,2013-03-03 14:05:00,
2013-03-03 09:30:00,31.3,20.9,29.89,West,270,0.7,0.7,65,0.00,,,0.00,WUHU216HW,2013-03-03 14:30:00,
2013-03-03 09:35:00,31.3,20.9,29.89,West,270,0.7,0.7,65,0.00,,,0.00,WUHU216HW,2013-03-03 14:35:00,
2013-03-03 10:00:00,32.6,19.5,29.88,WNW,293,1.8,1.8,58,0.00,,,0.00,WUHU216HW,2013-03-03 15:00:00,
2013-03-03 10:05:00,32.6,19.5,29.88,WNW,293,1.8,1.8,58,0.00,,,0.00,WUHU216HW,2013-03-03 15:05:00,
2013-03-03 10:30:00,33.1,18.6,29.88,NW,315,2.5,2.5,55,0.00,,,0.00,WUHU216HW,2013-03-03 15:30:00,
2013-03-03 10:35:00,33.1,18.6,29.88,NW,315,2.5,2.5,55,0.00,,,0.00,WUHU216HW,2013-03-03 15:35:00,
2013-03-03 11:00:00,33.3,18.4,29.88,West,270,3.6,3.6,54,0.00,,,0.00,WUHU216HW,2013-03-03 16:00:00,
2013-03-03 11:05:00,33.3,18.4,29.88,West,270,3.6,3.6,54,0.00,,,0.00,WUHU216HW,2013-03-03 16:05:00,
2013-03-03 11:30:00,35.6,19.4,29.87,NNW,338,4.5,4.5,51,0.00,,,0.00,WUHU216HW,2013-03-03 16:30:00,
2013-03-03 11:35:00,35.6,19.4,29.87,NNW,338,4.5,4.5,51,0.00,,,0.00,WUHU216HW,2013-03-03 16:35:00,
2013-03-03 12:00:00,36.5,18.6,29.87,West,270,3.4,3.4,48,0.00,,,0.00,WUHU216HW,2013-03-03 17:00:00,
2013-03-03 12:05:00,36.5,18.6,29.87,West,270,3.4,3.4,48,0.00,,,0.00,WUHU216HW,2013-03-03 17:05:00,
2013-03-03 12:30:00,37.4,19.4,29.85,WNW,293,3.4,3.4,48,0.00,,,0.00,WUHU216HW,2013-03-03 17:30:00,
2013-03-03 12:35:00,37.4,19.4,29.85,WNW,293,3.4,3.4,48,0.00,,,0.00,WUHU216HW,2013-03-03 17:35:00,
2013-03-03 13:00:00,38.0,18.4,29.84,WSW,248,3.8,3.8,45,0.00,,,0.00,WUHU216HW,2013-03-03 18:00:00,
2013-03-03 13:05:00,38.0,18.4,29.84,WSW,248,3.8,3.8,45,0.00,,,0.00,WUHU216HW,2013-03-03 18:05:00,
2013-03-03 13:30:00,37.4,19.0,29.83,NW,315,4.7,4.7,47,0.00,,,0.00,WUHU216HW,2013-03-03 18:30:00,
2013-03-03 13:35:00,37.4,19.0,29.83,NW,315,4.7,4.7,47,0.00,,,0.00,WUHU216HW,2013-03-03 18:35:00,
2013-03-03 14:00:00,38.9,19.2,29.83,NNW,338,1.6,1.6,45,0.00,,,0.00,WUHU216HW,2013-03-03 19:00:00,
2013-03-03 14:05:00,38.9,19.2,29.83,NNW,338,1.6,1.6,45,0.00,,,0.00,WUHU216HW,2013-03-03 19:05:00,
2013-03-03 14:30:00,38.9,19.2,29.82,NW,315,1.1,1.1,45,0.00,,,0.00,WUHU216HW,2013-03-03 19:30:00,
2013-03-03 14:35:00,38.9,19.2,29.82,NW,315,1.1,1.1,45,0.00,,,0.00,WUHU216HW,2013-03-03 19:35:00,
2013-03-03 15:00:00,38.3,19.3,29.82,NW,315,2.7,2.7,46,0.00,,,0.00,WUHU216HW,2013-03-03 20:00:00,
2013-03-03 15:05:00,38.3,19.3,29.82,NW,315,2.7,2.7,46,0.00,,,0.00,WUHU216HW,2013-03-03 20:05:00,
2013-03-03 15:30:00,37.4,18.5,29.83,NNW,338,3.1,3.1,46,0.00,,,0.00,WUHU216HW,2013-03-03 20:30:00,
2013-03-03 15:35:00,37.4,18.5,29.83,NNW,338,3.1,3.1,46,0.00,,,0.00,WUHU216HW,2013-03-03 20:35:00,
2013-03-03 16:00:00,37.1,18.1,29.83,NW,315,3.6,3.6,46,0.00,,,0.00,WUHU216HW,2013-03-03 21:00:00,
2013-03-03 16:05:00,37.1,18.1,29.83,NW,315,3.6,3.6,46,0.00,,,0.00,WUHU216HW,2013-03-03 21:05:00,
2013-03-03 16:30:00,36.4,18.0,29.85,WNW,293,3.4,3.4,47,0.00,,,0.00,WUHU216HW,2013-03-03 21:30:00,
2013-03-03 16:35:00,36.4,18.0,29.85,WNW,293,3.4,3.4,47,0.00,,,0.00,WUHU216HW,2013-03-03 21:35:00,
2013-03-03 17:00:00,35.6,17.4,29.85,West,270,4.0,4.0,47,0.00,,,0.00,WUHU216HW,2013-03-03 22:00:00,
2013-03-03 17:05:00,35.6,17.4,29.85,West,270,4.0,4.0,47,0.00,,,0.00,WUHU216HW,2013-03-03 22:05:00,
2013-03-03 17:30:00,34.9,17.2,29.87,West,270,0.9,0.9,48,0.00,,,0.00,WUHU216HW,2013-03-03 22:30:00,
2013-03-03 17:35:00,34.9,17.2,29.87,West,270,0.9,0.9,48,0.00,,,0.00,WUHU216HW,2013-03-03 22:35:00,
2013-03-03 18:00:00,33.5,16.7,29.88,WNW,293,2.2,2.2,50,0.00,,,0.00,WUHU216HW,2013-03-03 23:00:00,
2013-03-03 18:05:00,33.5,16.7,29.88,WNW,293,2.2,2.2,50,0.00,,,0.00,WUHU216HW,2013-03-03 23:05:00,
2013-03-03 18:30:00,32.6,16.8,29.89,NW,315,1.1,1.1,52,0.00,,,0.00,WUHU216HW,2013-03-03 23:30:00,
2013-03-03 18:35:00,32.6,16.8,29.89,NW,315,1.1,1.1,52,0.00,,,0.00,WUHU216HW,2013-03-03 23:35:00,
2013-03-03 19:00:00,31.3,15.7,29.90,WNW,293,1.1,1.1,52,0.00,,,0.00,WUHU216HW,2013-03-04 00:00:00,
2013-03-03 19:05:00,31.3,15.7,29.90,WNW,293,1.1,1.1,52,0.00,,,0.00,WUHU216HW,2013-03-04 00:05:00,
2013-03-03 19:30:00,30.8,15.2,29.92,WNW,293,1.3,1.3,52,0.00,,,0.00,WUHU216HW,2013-03-04 00:30:00,
2013-03-03 19:35:00,30.8,15.2,29.92,WNW,293,1.3,1.3,52,0.00,,,0.00,WUHU216HW,2013-03-04 00:35:00,
2013-03-03 20:00:00,29.9,15.6,29.92,West,270,1.1,1.1,55,0.00,,,0.00,WUHU216HW,2013-03-04 01:00:00,
2013-03-03 20:05:00,29.9,15.6,29.92,West,270,1.1,1.1,55,0.00,,,0.00,WUHU216HW,2013-03-04 01:05:00,
2013-03-03 20:30:00,29.2,14.9,29.93,WNW,293,1.8,1.8,55,0.00,,,0.00,WUHU216HW,2013-03-04 01:30:00,
2013-03-03 20:35:00,29.2,14.9,29.93,WNW,293,1.8,1.8,55,0.00,,,0.00,WUHU216HW,2013-03-04 01:35:00,
2013-03-03 21:07:00,27.7,14.4,29.95,West,270,3.4,3.4,57,0.00,,,0.00,WUHU216HW,2013-03-04 02:07:00,
2013-03-03 21:12:00,27.9,14.6,29.95,West,270,1.8,3.4,57,0.00,,,0.00,WUHU216HW,2013-03-04 02:12:00,
2013-03-03 21:17:00,28.4,14.8,29.95,West,270,1.3,2.9,56,0.00,,,0.00,WUHU216HW,2013-03-04 02:17:00,
2013-03-03 21:22:00,28.3,14.6,29.95,West,270,1.1,4.7,56,0.00,,,0.00,WUHU216HW,2013-03-04 02:22:00,
2013-03-03 21:27:00,28.1,14.8,29.95,West,270,1.1,4.7,57,0.00,,,0.00,WUHU216HW,2013-03-04 02:27:00,
2013-03-03 21:32:00,28.1,14.8,29.96,West,270,0.4,2.2,57,0.00,,,0.00,WUHU216HW,2013-03-04 02:32:00,
2013-03-03 21:37:00,27.9,14.6,29.95,NNW,338,2.2,2.2,57,0.00,,,0.00,WUHU216HW,2013-03-04 02:37:00,
2013-03-03 21:42:00,28.1,14.4,29.95,West,270,1.1,2.5,56,0.00,,,0.00,WUHU216HW,2013-03-04 02:42:00,
2013-03-03 21:47:00,27.9,14.6,29.95,West,270,0.4,2.5,57,0.00,,,0.00,WUHU216HW,2013-03-04 02:47:00,
2013-03-03 21:52:00,27.7,14.4,29.95,WSW,248,1.6,1.8,57,0.00,,,0.00,WUHU216HW,2013-03-04 02:52:00,
2013-03-03 21:57:00,27.7,14.4,29.96,West,270,0.7,2.0,57,0.00,,,0.00,WUHU216HW,2013-03-04 02:57:00,
2013-03-03 22:02:00,27.4,14.0,29.96,West,270,2.0,2.0,57,0.00,,,0.00,WUHU216HW,2013-03-04 03:02:00,
2013-03-03 22:07:00,27.4,14.5,29.96,WNW,293,1.1,2.5,58,0.00,,,0.00,WUHU216HW,2013-03-04 03:07:00,
2013-03-03 22:12:00,27.2,14.3,29.96,West,270,1.6,2.5,58,0.00,,,0.00,WUHU216HW,2013-03-04 03:12:00,
2013-03-03 22:17:00,27.2,14.3,29.96,WSW,248,1.8,2.5,58,0.00,,,0.00,WUHU216HW,2013-03-04 03:17:00,
2013-03-03 22:22:00,27.0,14.1,29.96,West,270,1.8,2.5,58,0.00,,,0.00,WUHU216HW,2013-03-04 03:22:00,
2013-03-03 22:27:00,27.0,14.1,29.97,West,270,1.1,1.8,58,0.00,,,0.00,WUHU216HW,2013-03-04 03:27:00,
2013-03-03 22:32:00,27.0,14.1,29.96,WNW,293,0.0,1.3,58,0.00,,,0.00,WUHU216HW,2013-03-04 03:32:00,
2013-03-03 22:37:00,26.5,14.1,29.97,WSW,248,0.7,0.9,59,0.00,,,0.00,WUHU216HW,2013-03-04 03:37:00,
2013-03-03 22:42:00,26.3,13.9,29.97,WSW,248,0.4,1.1,59,0.00,,,0.00,WUHU216HW,2013-03-04 03:42:00,
2013-03-03 22:47:00,26.1,13.7,29.97,NW,315,1.3,2.2,59,0.00,,,0.00,WUHU216HW,2013-03-04 03:47:00,
2013-03-03 22:52:00,26.8,13.5,29.97,WNW,293,0.7,2.5,57,0.00,,,0.00,WUHU216HW,2013-03-04 03:52:00,
2013-03-03 22:57:00,27.2,13.5,29.97,West,270,2.5,2.7,56,0.00,,,0.00,WUHU216HW,2013-03-04 03:57:00,
2013-03-03 23:02:00,27.2,13.1,29.97,NW,315,4.7,4.7,55,0.00,,,0.00,WUHU216HW,2013-03-04 04:02:00,
2013-03-03 23:07:00,27.2,13.5,29.96,NW,315,1.8,4.7,56,0.00,,,0.00,WUHU216HW,2013-03-04 04:07:00,
2013-03-03 23:12:00,27.0,12.9,29.97,WNW,293,1.1,2.5,55,0.00,,,0.00,WUHU216HW,2013-03-04 04:12:00,
2013-03-03 23:17:00,26.6,13.3,29.97,West,270,0.9,2.9,57,0.00,,,0.00,WUHU216HW,2013-03-04 04:17:00,
2013-03-03 23:22:00,26.3,13.1,29.97,West,270,0.9,2.9,57,0.00,,,0.00,WUHU216HW,2013-03-04 04:22:00,
2013-03-03 23:27:00,25.9,13.2,29.97,WSW,248,1.1,2.7,58,0.00,,,0.00,WUHU216HW,2013-03-04 04:27:00,
2013-03-03 23:32:00,25.6,13.2,29.97,West,270,1.8,2.7,59,0.00,,,0.00,WUHU216HW,2013-03-04 04:32:00,
2013-03-03 23:37:00,25.7,13.3,29.97,NW,315,1.1,2.5,59,0.00,,,0.00,WUHU216HW,2013-03-04 04:37:00,
2013-03-03 23:42:00,25.6,13.2,29.97,WNW,293,1.8,1.8,59,0.00,,,0.00,WUHU216HW,2013-03-04 04:42:00,
2013-03-03 23:47:00,25.7,13.0,29.98,WNW,293,2.5,2.5,58,0.00,,,0.00,WUHU216HW,2013-03-04 04:47:00,
2013-03-03 23:52:00,26.1,13.2,29.97,West,270,1.8,2.5,58,0.00,,,0.00,WUHU216HW,2013-03-04 04:52:00,
2013-03-03 23:57:00,25.9,13.2,29.97,West,270,1.6,2.2,58,0.00,,,0.00,WUHU216HW,2013-03-04 04:57:00,